sensor_id;sensor_type;location;lat;lon;timestamp;P1;durP1;ratioP1;P2;durP2;ratioP2
35444;SDS011;21562;49.476;6.086;2024-03-02T00:00:18;5.78;;;1.40;;
35444;SDS011;21562;49.476;6.086;2024-03-02T00:02:47;4.43;;;1.52;;
35444;SDS011;21562;49.476;6.086;2024-03-02T00:05:17;7.75;;;1.30;;
35444;SDS011;21562;49.476;6.086;2024-03-02T00:07:56;5.28;;;1.30;;
35444;SDS011;21562;49.476;6.086;2024-03-02T00:10:25;4.65;;;1.45;;
35444;SDS011;21562;49.476;6.086;2024-03-02T00:12:57;6.28;;;1.40;;
35444;SDS011;21562;49.476;6.086;2024-03-02T00:18:25;5.80;;;1.10;;
35444;SDS011;21562;49.476;6.086;2024-03-02T00:20:59;4.68;;;1.60;;
35444;SDS011;21562;49.476;6.086;2024-03-02T00:23:31;4.13;;;1.10;;
35444;SDS011;21562;49.476;6.086;2024-03-02T00:25:58;3.25;;;1.38;;
35444;SDS011;21562;49.476;6.086;2024-03-02T00:28:29;2.45;;;1.05;;
35444;SDS011;21562;49.476;6.086;2024-03-02T00:36:05;5.28;;;1.00;;
35444;SDS011;21562;49.476;6.086;2024-03-02T00:38:32;3.83;;;1.20;;
35444;SDS011;21562;49.476;6.086;2024-03-02T00:41:07;6.80;;;1.17;;
35444;SDS011;21562;49.476;6.086;2024-03-02T00:43:45;3.25;;;1.20;;
35444;SDS011;21562;49.476;6.086;2024-03-02T00:46:27;4.38;;;1.10;;
35444;SDS011;21562;49.476;6.086;2024-03-02T00:48:59;7.85;;;1.23;;
35444;SDS011;21562;49.476;6.086;2024-03-02T00:51:27;4.53;;;1.25;;
35444;SDS011;21562;49.476;6.086;2024-03-02T00:53:55;3.08;;;0.95;;
35444;SDS011;21562;49.476;6.086;2024-03-02T00:56:26;5.22;;;1.45;;
35444;SDS011;21562;49.476;6.086;2024-03-02T00:58:52;5.10;;;1.40;;
35444;SDS011;21562;49.476;6.086;2024-03-02T01:01:18;4.05;;;1.67;;
35444;SDS011;21562;49.476;6.086;2024-03-02T01:03:47;2.65;;;1.15;;
35444;SDS011;21562;49.476;6.086;2024-03-02T01:06:14;3.33;;;1.30;;
35444;SDS011;21562;49.476;6.086;2024-03-02T01:08:40;2.70;;;1.00;;
35444;SDS011;21562;49.476;6.086;2024-03-02T01:11:05;5.63;;;1.30;;
35444;SDS011;21562;49.476;6.086;2024-03-02T01:13:31;4.32;;;1.10;;
35444;SDS011;21562;49.476;6.086;2024-03-02T01:15:57;3.30;;;1.27;;
35444;SDS011;21562;49.476;6.086;2024-03-02T01:18:24;5.40;;;1.65;;
35444;SDS011;21562;49.476;6.086;2024-03-02T01:20:50;5.22;;;1.40;;
35444;SDS011;21562;49.476;6.086;2024-03-02T01:23:21;3.40;;;1.20;;
35444;SDS011;21562;49.476;6.086;2024-03-02T01:25:47;5.05;;;1.50;;
35444;SDS011;21562;49.476;6.086;2024-03-02T01:28:13;3.25;;;1.20;;
35444;SDS011;21562;49.476;6.086;2024-03-02T01:30:40;2.42;;;0.85;;
35444;SDS011;21562;49.476;6.086;2024-03-02T01:33:06;3.47;;;1.30;;
35444;SDS011;21562;49.476;6.086;2024-03-02T01:35:32;2.95;;;1.10;;
35444;SDS011;21562;49.476;6.086;2024-03-02T01:37:58;5.32;;;1.30;;
35444;SDS011;21562;49.476;6.086;2024-03-02T01:40:24;8.50;;;1.50;;
35444;SDS011;21562;49.476;6.086;2024-03-02T01:42:53;4.43;;;1.55;;
35444;SDS011;21562;49.476;6.086;2024-03-02T01:45:27;2.83;;;1.30;;
35444;SDS011;21562;49.476;6.086;2024-03-02T01:47:53;4.47;;;1.40;;
35444;SDS011;21562;49.476;6.086;2024-03-02T01:50:26;4.07;;;1.70;;
35444;SDS011;21562;49.476;6.086;2024-03-02T01:52:54;4.50;;;1.27;;
35444;SDS011;21562;49.476;6.086;2024-03-02T01:55:23;3.50;;;1.50;;
35444;SDS011;21562;49.476;6.086;2024-03-02T01:57:49;4.65;;;1.52;;
35444;SDS011;21562;49.476;6.086;2024-03-02T02:00:22;4.30;;;1.30;;
35444;SDS011;21562;49.476;6.086;2024-03-02T02:02:50;3.00;;;1.35;;
35444;SDS011;21562;49.476;6.086;2024-03-02T02:05:16;2.60;;;1.20;;
35444;SDS011;21562;49.476;6.086;2024-03-02T02:07:42;6.63;;;1.38;;
35444;SDS011;21562;49.476;6.086;2024-03-02T02:10:09;3.20;;;1.40;;
35444;SDS011;21562;49.476;6.086;2024-03-02T02:12:35;2.78;;;1.27;;
35444;SDS011;21562;49.476;6.086;2024-03-02T02:15:02;5.40;;;1.40;;
35444;SDS011;21562;49.476;6.086;2024-03-02T02:17:28;3.05;;;1.50;;
35444;SDS011;21562;49.476;6.086;2024-03-02T02:19:54;2.25;;;1.20;;
35444;SDS011;21562;49.476;6.086;2024-03-02T02:22:19;2.75;;;1.02;;
35444;SDS011;21562;49.476;6.086;2024-03-02T02:24:45;2.38;;;1.10;;
35444;SDS011;21562;49.476;6.086;2024-03-02T02:27:11;5.90;;;1.20;;
35444;SDS011;21562;49.476;6.086;2024-03-02T02:29:39;3.95;;;1.17;;
35444;SDS011;21562;49.476;6.086;2024-03-02T02:32:05;7.57;;;1.30;;
35444;SDS011;21562;49.476;6.086;2024-03-02T02:34:31;1.67;;;0.70;;
35444;SDS011;21562;49.476;6.086;2024-03-02T02:36:56;2.83;;;0.93;;
35444;SDS011;21562;49.476;6.086;2024-03-02T02:39:22;2.78;;;1.13;;
35444;SDS011;21562;49.476;6.086;2024-03-02T02:41:48;4.28;;;0.73;;
35444;SDS011;21562;49.476;6.086;2024-03-02T02:44:14;2.53;;;0.80;;
35444;SDS011;21562;49.476;6.086;2024-03-02T02:46:40;1.75;;;0.73;;
35444;SDS011;21562;49.476;6.086;2024-03-02T02:49:06;4.35;;;0.77;;
35444;SDS011;21562;49.476;6.086;2024-03-02T02:51:32;2.15;;;0.70;;
35444;SDS011;21562;49.476;6.086;2024-03-02T02:53:58;1.60;;;0.50;;
35444;SDS011;21562;49.476;6.086;2024-03-02T02:56:24;3.90;;;0.30;;
35444;SDS011;21562;49.476;6.086;2024-03-02T02:58:50;1.75;;;0.60;;
35444;SDS011;21562;49.476;6.086;2024-03-02T03:01:16;2.83;;;0.60;;
35444;SDS011;21562;49.476;6.086;2024-03-02T03:03:43;1.92;;;0.65;;
35444;SDS011;21562;49.476;6.086;2024-03-02T03:06:09;0.85;;;0.30;;
35444;SDS011;21562;49.476;6.086;2024-03-02T03:08:36;5.53;;;0.50;;
35444;SDS011;21562;49.476;6.086;2024-03-02T03:11:02;2.75;;;0.65;;
35444;SDS011;21562;49.476;6.086;2024-03-02T03:13:28;2.05;;;0.35;;
35444;SDS011;21562;49.476;6.086;2024-03-02T03:15:53;1.48;;;0.30;;
35444;SDS011;21562;49.476;6.086;2024-03-02T03:18:19;0.73;;;0.20;;
35444;SDS011;21562;49.476;6.086;2024-03-02T03:20:45;3.08;;;0.32;;
35444;SDS011;21562;49.476;6.086;2024-03-02T03:23:10;1.15;;;0.40;;
35444;SDS011;21562;49.476;6.086;2024-03-02T03:25:40;1.08;;;0.30;;
35444;SDS011;21562;49.476;6.086;2024-03-02T03:28:07;1.90;;;0.30;;
35444;SDS011;21562;49.476;6.086;2024-03-02T03:30:35;0.20;;;0.20;;
35444;SDS011;21562;49.476;6.086;2024-03-02T03:33:04;0.85;;;0.50;;
35444;SDS011;21562;49.476;6.086;2024-03-02T03:35:33;0.55;;;0.28;;
35444;SDS011;21562;49.476;6.086;2024-03-02T03:37:59;6.05;;;1.15;;
35444;SDS011;21562;49.476;6.086;2024-03-02T03:40:25;0.25;;;0.20;;
35444;SDS011;21562;49.476;6.086;2024-03-02T03:42:51;0.55;;;0.50;;
35444;SDS011;21562;49.476;6.086;2024-03-02T03:45:17;2.83;;;0.25;;
35444;SDS011;21562;49.476;6.086;2024-03-02T03:47:43;0.10;;;0.10;;
35444;SDS011;21562;49.476;6.086;2024-03-02T03:50:09;0.75;;;0.20;;
35444;SDS011;21562;49.476;6.086;2024-03-02T03:52:35;0.98;;;0.30;;
35444;SDS011;21562;49.476;6.086;2024-03-02T03:55:01;1.90;;;0.50;;
35444;SDS011;21562;49.476;6.086;2024-03-02T03:57:27;1.45;;;0.20;;
35444;SDS011;21562;49.476;6.086;2024-03-02T03:59:52;1.52;;;0.30;;
35444;SDS011;21562;49.476;6.086;2024-03-02T04:02:19;0.85;;;0.32;;
35444;SDS011;21562;49.476;6.086;2024-03-02T04:04:44;0.25;;;0.22;;
35444;SDS011;21562;49.476;6.086;2024-03-02T04:07:11;2.50;;;0.30;;
35444;SDS011;21562;49.476;6.086;2024-03-02T04:09:36;0.68;;;0.20;;
35444;SDS011;21562;49.476;6.086;2024-03-02T04:12:02;0.90;;;0.30;;
35444;SDS011;21562;49.476;6.086;2024-03-02T04:14:28;2.60;;;0.30;;
35444;SDS011;21562;49.476;6.086;2024-03-02T04:16:54;1.13;;;0.30;;
35444;SDS011;21562;49.476;6.086;2024-03-02T04:19:19;1.02;;;0.15;;
35444;SDS011;21562;49.476;6.086;2024-03-02T04:21:45;3.58;;;0.38;;
35444;SDS011;21562;49.476;6.086;2024-03-02T04:24:11;0.68;;;0.20;;
35444;SDS011;21562;49.476;6.086;2024-03-02T04:26:36;1.85;;;0.20;;
35444;SDS011;21562;49.476;6.086;2024-03-02T04:29:02;0.90;;;0.30;;
35444;SDS011;21562;49.476;6.086;2024-03-02T04:31:28;0.35;;;0.20;;
35444;SDS011;21562;49.476;6.086;2024-03-02T04:33:53;3.70;;;0.25;;
35444;SDS011;21562;49.476;6.086;2024-03-02T04:36:19;1.08;;;0.22;;
35444;SDS011;21562;49.476;6.086;2024-03-02T04:38:46;2.33;;;0.40;;
35444;SDS011;21562;49.476;6.086;2024-03-02T04:41:12;3.17;;;0.32;;
35444;SDS011;21562;49.476;6.086;2024-03-02T04:43:37;0.88;;;0.22;;
35444;SDS011;21562;49.476;6.086;2024-03-02T04:46:05;2.05;;;0.20;;
35444;SDS011;21562;49.476;6.086;2024-03-02T04:48:33;1.38;;;0.45;;
35444;SDS011;21562;49.476;6.086;2024-03-02T04:50:59;2.22;;;0.35;;
35444;SDS011;21562;49.476;6.086;2024-03-02T04:53:25;1.60;;;0.32;;
35444;SDS011;21562;49.476;6.086;2024-03-02T04:55:50;0.55;;;0.20;;
35444;SDS011;21562;49.476;6.086;2024-03-02T04:58:19;1.70;;;0.40;;
35444;SDS011;21562;49.476;6.086;2024-03-02T05:00:44;3.05;;;0.30;;
35444;SDS011;21562;49.476;6.086;2024-03-02T05:03:11;2.17;;;0.30;;
35444;SDS011;21562;49.476;6.086;2024-03-02T05:05:38;3.53;;;0.30;;
35444;SDS011;21562;49.476;6.086;2024-03-02T05:08:03;2.05;;;0.47;;
35444;SDS011;21562;49.476;6.086;2024-03-02T05:10:30;1.85;;;0.28;;
35444;SDS011;21562;49.476;6.086;2024-03-02T05:12:55;0.93;;;0.28;;
35444;SDS011;21562;49.476;6.086;2024-03-02T05:15:24;2.08;;;0.30;;
35444;SDS011;21562;49.476;6.086;2024-03-02T05:17:50;1.23;;;0.20;;
35444;SDS011;21562;49.476;6.086;2024-03-02T05:20:16;1.50;;;0.40;;
35444;SDS011;21562;49.476;6.086;2024-03-02T05:22:42;1.40;;;0.85;;
35444;SDS011;21562;49.476;6.086;2024-03-02T05:25:07;1.95;;;0.50;;
35444;SDS011;21562;49.476;6.086;2024-03-02T05:27:34;2.90;;;0.28;;
35444;SDS011;21562;49.476;6.086;2024-03-02T05:30:00;0.77;;;0.40;;
35444;SDS011;21562;49.476;6.086;2024-03-02T05:32:26;2.40;;;0.28;;
35444;SDS011;21562;49.476;6.086;2024-03-02T05:34:52;3.95;;;0.50;;
35444;SDS011;21562;49.476;6.086;2024-03-02T05:37:18;4.18;;;0.30;;
35444;SDS011;21562;49.476;6.086;2024-03-02T05:39:43;1.42;;;0.40;;
35444;SDS011;21562;49.476;6.086;2024-03-02T05:42:09;1.15;;;0.50;;
35444;SDS011;21562;49.476;6.086;2024-03-02T05:44:35;2.03;;;0.30;;
35444;SDS011;21562;49.476;6.086;2024-03-02T05:47:01;1.08;;;0.45;;
35444;SDS011;21562;49.476;6.086;2024-03-02T05:49:28;2.38;;;0.40;;
35444;SDS011;21562;49.476;6.086;2024-03-02T05:51:54;4.20;;;0.47;;
35444;SDS011;21562;49.476;6.086;2024-03-02T05:54:19;4.68;;;0.60;;
35444;SDS011;21562;49.476;6.086;2024-03-02T05:56:45;1.60;;;0.60;;
35444;SDS011;21562;49.476;6.086;2024-03-02T05:59:11;2.67;;;0.80;;
35444;SDS011;21562;49.476;6.086;2024-03-02T06:01:47;1.67;;;0.90;;
35444;SDS011;21562;49.476;6.086;2024-03-02T06:06:41;1.13;;;0.75;;
35444;SDS011;21562;49.476;6.086;2024-03-02T06:09:07;4.50;;;1.00;;
35444;SDS011;21562;49.476;6.086;2024-03-02T06:11:33;3.75;;;1.10;;
35444;SDS011;21562;49.476;6.086;2024-03-02T06:13:59;3.13;;;1.20;;
35444;SDS011;21562;49.476;6.086;2024-03-02T06:16:25;3.10;;;1.35;;
35444;SDS011;21562;49.476;6.086;2024-03-02T06:18:50;2.85;;;1.20;;
35444;SDS011;21562;49.476;6.086;2024-03-02T06:21:16;3.05;;;1.23;;
35444;SDS011;21562;49.476;6.086;2024-03-02T06:23:43;3.97;;;1.20;;
35444;SDS011;21562;49.476;6.086;2024-03-02T06:26:09;2.42;;;1.40;;
35444;SDS011;21562;49.476;6.086;2024-03-02T06:28:35;2.97;;;1.15;;
35444;SDS011;21562;49.476;6.086;2024-03-02T06:31:03;4.65;;;1.20;;
35444;SDS011;21562;49.476;6.086;2024-03-02T06:33:29;5.60;;;1.88;;
35444;SDS011;21562;49.476;6.086;2024-03-02T06:35:55;3.42;;;1.63;;
35444;SDS011;21562;49.476;6.086;2024-03-02T06:38:21;4.82;;;1.50;;
35444;SDS011;21562;49.476;6.086;2024-03-02T06:40:46;6.32;;;1.27;;
35444;SDS011;21562;49.476;6.086;2024-03-02T06:43:12;2.08;;;1.23;;
35444;SDS011;21562;49.476;6.086;2024-03-02T06:45:38;3.75;;;1.33;;
35444;SDS011;21562;49.476;6.086;2024-03-02T06:48:03;2.45;;;1.23;;
35444;SDS011;21562;49.476;6.086;2024-03-02T06:50:30;1.75;;;1.10;;
35444;SDS011;21562;49.476;6.086;2024-03-02T06:52:55;4.07;;;1.23;;
35444;SDS011;21562;49.476;6.086;2024-03-02T06:55:22;2.30;;;1.52;;
35444;SDS011;21562;49.476;6.086;2024-03-02T06:57:49;4.97;;;1.80;;
35444;SDS011;21562;49.476;6.086;2024-03-02T07:00:15;3.72;;;1.75;;
35444;SDS011;21562;49.476;6.086;2024-03-02T07:02:42;7.35;;;1.70;;
35444;SDS011;21562;49.476;6.086;2024-03-02T07:05:11;2.28;;;1.40;;
35444;SDS011;21562;49.476;6.086;2024-03-02T07:07:37;2.25;;;1.30;;
35444;SDS011;21562;49.476;6.086;2024-03-02T07:10:06;5.00;;;1.42;;
35444;SDS011;21562;49.476;6.086;2024-03-02T07:12:35;3.90;;;1.08;;
35444;SDS011;21562;49.476;6.086;2024-03-02T07:15:01;4.40;;;1.30;;
35444;SDS011;21562;49.476;6.086;2024-03-02T07:17:27;3.83;;;1.33;;
35444;SDS011;21562;49.476;6.086;2024-03-02T07:19:53;3.38;;;1.15;;
35444;SDS011;21562;49.476;6.086;2024-03-02T07:22:19;2.65;;;1.30;;
35444;SDS011;21562;49.476;6.086;2024-03-02T07:24:45;3.63;;;1.13;;
35444;SDS011;21562;49.476;6.086;2024-03-02T07:27:11;3.55;;;1.45;;
35444;SDS011;21562;49.476;6.086;2024-03-02T07:29:38;3.10;;;1.52;;
35444;SDS011;21562;49.476;6.086;2024-03-02T07:32:05;5.65;;;1.50;;
35444;SDS011;21562;49.476;6.086;2024-03-02T07:34:31;1.83;;;1.20;;
35444;SDS011;21562;49.476;6.086;2024-03-02T07:36:57;2.63;;;1.27;;
35444;SDS011;21562;49.476;6.086;2024-03-02T07:39:23;2.47;;;1.45;;
35444;SDS011;21562;49.476;6.086;2024-03-02T07:41:49;2.63;;;1.38;;
35444;SDS011;21562;49.476;6.086;2024-03-02T07:44:15;3.78;;;1.45;;
35444;SDS011;21562;49.476;6.086;2024-03-02T07:46:41;4.53;;;1.83;;
35444;SDS011;21562;49.476;6.086;2024-03-02T07:49:17;3.35;;;1.92;;
35444;SDS011;21562;49.476;6.086;2024-03-02T07:51:43;4.70;;;2.00;;
35444;SDS011;21562;49.476;6.086;2024-03-02T07:54:09;4.45;;;2.35;;
35444;SDS011;21562;49.476;6.086;2024-03-02T07:56:34;3.22;;;2.08;;
35444;SDS011;21562;49.476;6.086;2024-03-02T07:59:01;3.88;;;2.28;;
35444;SDS011;21562;49.476;6.086;2024-03-02T08:01:33;4.40;;;1.83;;
35444;SDS011;21562;49.476;6.086;2024-03-02T08:04:02;3.65;;;2.00;;
35444;SDS011;21562;49.476;6.086;2024-03-02T08:06:29;5.50;;;1.90;;
35444;SDS011;21562;49.476;6.086;2024-03-02T08:08:55;3.85;;;1.98;;
35444;SDS011;21562;49.476;6.086;2024-03-02T08:11:22;3.88;;;1.92;;
35444;SDS011;21562;49.476;6.086;2024-03-02T08:13:48;6.28;;;1.88;;
35444;SDS011;21562;49.476;6.086;2024-03-02T08:16:14;3.63;;;2.17;;
35444;SDS011;21562;49.476;6.086;2024-03-02T08:18:41;5.72;;;2.33;;
35444;SDS011;21562;49.476;6.086;2024-03-02T08:21:07;4.18;;;2.00;;
35444;SDS011;21562;49.476;6.086;2024-03-02T08:23:33;5.90;;;2.00;;
35444;SDS011;21562;49.476;6.086;2024-03-02T08:25:59;4.68;;;2.15;;
35444;SDS011;21562;49.476;6.086;2024-03-02T08:28:25;10.25;;;1.98;;
35444;SDS011;21562;49.476;6.086;2024-03-02T08:30:51;5.90;;;2.47;;
35444;SDS011;21562;49.476;6.086;2024-03-02T08:33:17;3.38;;;1.83;;
35444;SDS011;21562;49.476;6.086;2024-03-02T08:35:42;3.50;;;1.80;;
35444;SDS011;21562;49.476;6.086;2024-03-02T08:38:08;5.72;;;2.05;;
35444;SDS011;21562;49.476;6.086;2024-03-02T08:40:34;5.45;;;2.10;;
35444;SDS011;21562;49.476;6.086;2024-03-02T08:43:00;5.97;;;1.83;;
35444;SDS011;21562;49.476;6.086;2024-03-02T08:45:25;6.00;;;1.83;;
35444;SDS011;21562;49.476;6.086;2024-03-02T08:47:51;5.28;;;1.65;;
35444;SDS011;21562;49.476;6.086;2024-03-02T08:50:17;5.60;;;1.75;;
35444;SDS011;21562;49.476;6.086;2024-03-02T08:52:43;5.07;;;1.90;;
35444;SDS011;21562;49.476;6.086;2024-03-02T08:55:09;5.25;;;1.77;;
35444;SDS011;21562;49.476;6.086;2024-03-02T08:57:36;4.72;;;1.80;;
35444;SDS011;21562;49.476;6.086;2024-03-02T09:00:02;4.53;;;2.95;;
35444;SDS011;21562;49.476;6.086;2024-03-02T09:02:28;7.22;;;1.85;;
35444;SDS011;21562;49.476;6.086;2024-03-02T09:04:54;5.40;;;2.00;;
35444;SDS011;21562;49.476;6.086;2024-03-02T09:07:19;4.28;;;2.13;;
35444;SDS011;21562;49.476;6.086;2024-03-02T09:09:45;4.25;;;1.77;;
35444;SDS011;21562;49.476;6.086;2024-03-02T09:12:11;8.65;;;3.05;;
35444;SDS011;21562;49.476;6.086;2024-03-02T09:14:37;6.03;;;2.00;;
35444;SDS011;21562;49.476;6.086;2024-03-02T09:17:03;3.30;;;1.73;;
35444;SDS011;21562;49.476;6.086;2024-03-02T09:19:29;4.35;;;1.75;;
35444;SDS011;21562;49.476;6.086;2024-03-02T09:21:55;6.45;;;1.50;;
35444;SDS011;21562;49.476;6.086;2024-03-02T09:24:21;5.28;;;1.50;;
35444;SDS011;21562;49.476;6.086;2024-03-02T09:26:47;7.68;;;1.60;;
35444;SDS011;21562;49.476;6.086;2024-03-02T09:29:13;6.55;;;1.73;;
35444;SDS011;21562;49.476;6.086;2024-03-02T09:31:42;9.30;;;1.88;;
35444;SDS011;21562;49.476;6.086;2024-03-02T09:34:08;5.03;;;2.00;;
35444;SDS011;21562;49.476;6.086;2024-03-02T09:36:34;4.78;;;1.42;;
35444;SDS011;21562;49.476;6.086;2024-03-02T09:39:00;3.45;;;1.35;;
35444;SDS011;21562;49.476;6.086;2024-03-02T09:41:26;6.15;;;1.55;;
35444;SDS011;21562;49.476;6.086;2024-03-02T09:43:52;4.15;;;1.23;;
35444;SDS011;21562;49.476;6.086;2024-03-02T09:46:19;5.65;;;1.13;;
35444;SDS011;21562;49.476;6.086;2024-03-02T09:48:44;5.75;;;1.35;;
35444;SDS011;21562;49.476;6.086;2024-03-02T09:51:11;2.45;;;1.40;;
35444;SDS011;21562;49.476;6.086;2024-03-02T09:53:37;3.85;;;1.38;;
35444;SDS011;21562;49.476;6.086;2024-03-02T09:56:03;3.55;;;1.25;;
35444;SDS011;21562;49.476;6.086;2024-03-02T09:58:29;9.43;;;1.55;;
35444;SDS011;21562;49.476;6.086;2024-03-02T10:00:55;4.72;;;1.58;;
35444;SDS011;21562;49.476;6.086;2024-03-02T10:03:25;2.42;;;1.35;;
35444;SDS011;21562;49.476;6.086;2024-03-02T10:05:54;2.80;;;1.58;;
35444;SDS011;21562;49.476;6.086;2024-03-02T10:08:19;4.45;;;1.25;;
35444;SDS011;21562;49.476;6.086;2024-03-02T10:10:45;2.33;;;1.10;;
35444;SDS011;21562;49.476;6.086;2024-03-02T10:13:11;7.63;;;2.13;;
35444;SDS011;21562;49.476;6.086;2024-03-02T10:15:39;4.88;;;1.42;;
35444;SDS011;21562;49.476;6.086;2024-03-02T10:18:12;4.88;;;1.20;;
35444;SDS011;21562;49.476;6.086;2024-03-02T10:20:39;3.08;;;1.00;;
35444;SDS011;21562;49.476;6.086;2024-03-02T10:23:15;2.88;;;1.00;;
35444;SDS011;21562;49.476;6.086;2024-03-02T10:25:42;3.70;;;0.80;;
35444;SDS011;21562;49.476;6.086;2024-03-02T10:28:09;2.38;;;1.10;;
35444;SDS011;21562;49.476;6.086;2024-03-02T10:30:35;3.65;;;0.85;;
35444;SDS011;21562;49.476;6.086;2024-03-02T10:33:04;3.10;;;0.85;;
35444;SDS011;21562;49.476;6.086;2024-03-02T10:35:31;4.65;;;1.00;;
35444;SDS011;21562;49.476;6.086;2024-03-02T10:38:01;3.30;;;1.08;;
35444;SDS011;21562;49.476;6.086;2024-03-02T10:40:31;3.15;;;0.93;;
35444;SDS011;21562;49.476;6.086;2024-03-02T10:42:57;1.70;;;0.63;;
35444;SDS011;21562;49.476;6.086;2024-03-02T10:45:24;2.72;;;0.60;;
35444;SDS011;21562;49.476;6.086;2024-03-02T10:47:50;1.42;;;0.80;;
35444;SDS011;21562;49.476;6.086;2024-03-02T10:50:16;3.75;;;0.95;;
35444;SDS011;21562;49.476;6.086;2024-03-02T10:52:42;5.75;;;1.50;;
35444;SDS011;21562;49.476;6.086;2024-03-02T10:55:08;3.42;;;1.08;;
35444;SDS011;21562;49.476;6.086;2024-03-02T11:00:33;2.45;;;1.00;;
35444;SDS011;21562;49.476;6.086;2024-03-02T11:03:06;5.18;;;1.50;;
35444;SDS011;21562;49.476;6.086;2024-03-02T11:05:36;4.43;;;1.23;;
35444;SDS011;21562;49.476;6.086;2024-03-02T11:08:07;1.65;;;1.00;;
35444;SDS011;21562;49.476;6.086;2024-03-02T11:10:37;4.50;;;1.73;;
35444;SDS011;21562;49.476;6.086;2024-03-02T11:13:28;2.58;;;1.40;;
35444;SDS011;21562;49.476;6.086;2024-03-02T11:15:59;5.28;;;1.60;;
35444;SDS011;21562;49.476;6.086;2024-03-02T11:20:57;3.55;;;1.85;;
35444;SDS011;21562;49.476;6.086;2024-03-02T11:23:33;2.50;;;1.42;;
35444;SDS011;21562;49.476;6.086;2024-03-02T11:28:45;2.63;;;1.48;;
35444;SDS011;21562;49.476;6.086;2024-03-02T11:31:11;3.65;;;1.98;;
35444;SDS011;21562;49.476;6.086;2024-03-02T11:33:36;4.95;;;1.83;;
35444;SDS011;21562;49.476;6.086;2024-03-02T11:36:02;3.97;;;1.80;;
35444;SDS011;21562;49.476;6.086;2024-03-02T11:38:30;6.00;;;1.80;;
35444;SDS011;21562;49.476;6.086;2024-03-02T11:40:57;3.15;;;1.63;;
35444;SDS011;21562;49.476;6.086;2024-03-02T11:43:27;6.15;;;1.98;;
35444;SDS011;21562;49.476;6.086;2024-03-02T11:45:57;4.30;;;1.80;;
35444;SDS011;21562;49.476;6.086;2024-03-02T11:48:24;3.75;;;1.80;;
35444;SDS011;21562;49.476;6.086;2024-03-02T11:50:51;5.80;;;2.35;;
35444;SDS011;21562;49.476;6.086;2024-03-02T11:53:17;4.00;;;1.50;;
35444;SDS011;21562;49.476;6.086;2024-03-02T11:55:44;4.50;;;1.20;;
35444;SDS011;21562;49.476;6.086;2024-03-02T11:58:13;4.45;;;1.45;;
35444;SDS011;21562;49.476;6.086;2024-03-02T12:00:50;3.95;;;1.50;;
35444;SDS011;21562;49.476;6.086;2024-03-02T12:03:16;2.63;;;1.35;;
35444;SDS011;21562;49.476;6.086;2024-03-02T12:05:42;2.15;;;1.10;;
35444;SDS011;21562;49.476;6.086;2024-03-02T12:08:08;4.63;;;1.67;;
35444;SDS011;21562;49.476;6.086;2024-03-02T12:10:34;2.17;;;1.35;;
35444;SDS011;21562;49.476;6.086;2024-03-02T12:13:05;4.70;;;1.35;;
35444;SDS011;21562;49.476;6.086;2024-03-02T12:15:33;2.58;;;1.17;;
35444;SDS011;21562;49.476;6.086;2024-03-02T12:18:00;2.65;;;1.20;;
35444;SDS011;21562;49.476;6.086;2024-03-02T12:20:29;2.90;;;1.08;;
35444;SDS011;21562;49.476;6.086;2024-03-02T12:23:00;2.75;;;1.10;;
35444;SDS011;21562;49.476;6.086;2024-03-02T12:25:30;2.35;;;1.40;;
35444;SDS011;21562;49.476;6.086;2024-03-02T12:27:58;4.57;;;1.40;;
35444;SDS011;21562;49.476;6.086;2024-03-02T12:30:26;2.42;;;1.17;;
35444;SDS011;21562;49.476;6.086;2024-03-02T12:32:54;2.08;;;0.98;;
35444;SDS011;21562;49.476;6.086;2024-03-02T12:35:19;3.08;;;1.10;;
35444;SDS011;21562;49.476;6.086;2024-03-02T12:37:49;1.85;;;0.80;;
35444;SDS011;21562;49.476;6.086;2024-03-02T12:40:17;3.08;;;1.05;;
35444;SDS011;21562;49.476;6.086;2024-03-02T12:42:43;2.53;;;1.00;;
35444;SDS011;21562;49.476;6.086;2024-03-02T12:45:10;4.05;;;1.20;;
35444;SDS011;21562;49.476;6.086;2024-03-02T12:47:36;1.25;;;0.80;;
35444;SDS011;21562;49.476;6.086;2024-03-02T12:50:04;2.60;;;0.98;;
35444;SDS011;21562;49.476;6.086;2024-03-02T12:52:30;1.00;;;0.70;;
35444;SDS011;21562;49.476;6.086;2024-03-02T12:55:00;2.30;;;1.15;;
35444;SDS011;21562;49.476;6.086;2024-03-02T12:57:28;1.20;;;0.90;;
35444;SDS011;21562;49.476;6.086;2024-03-02T13:00:12;1.17;;;0.63;;
35444;SDS011;21562;49.476;6.086;2024-03-02T13:02:41;2.38;;;0.93;;
35444;SDS011;21562;49.476;6.086;2024-03-02T13:05:08;1.88;;;0.90;;
35444;SDS011;21562;49.476;6.086;2024-03-02T13:07:36;3.08;;;0.85;;
35444;SDS011;21562;49.476;6.086;2024-03-02T13:10:03;0.93;;;0.73;;
35444;SDS011;21562;49.476;6.086;2024-03-02T13:12:30;2.90;;;0.90;;
35444;SDS011;21562;49.476;6.086;2024-03-02T13:14:57;4.68;;;1.13;;
35444;SDS011;21562;49.476;6.086;2024-03-02T13:17:24;2.72;;;0.80;;
35444;SDS011;21562;49.476;6.086;2024-03-02T13:19:56;1.52;;;0.98;;
35444;SDS011;21562;49.476;6.086;2024-03-02T13:22:23;3.85;;;0.95;;
35444;SDS011;21562;49.476;6.086;2024-03-02T13:24:50;2.50;;;1.08;;
35444;SDS011;21562;49.476;6.086;2024-03-02T13:27:16;1.67;;;0.75;;
35444;SDS011;21562;49.476;6.086;2024-03-02T13:29:46;0.73;;;0.60;;
35444;SDS011;21562;49.476;6.086;2024-03-02T13:32:17;2.45;;;0.80;;
35444;SDS011;21562;49.476;6.086;2024-03-02T13:34:48;1.73;;;0.73;;
35444;SDS011;21562;49.476;6.086;2024-03-02T13:37:14;1.83;;;0.82;;
35444;SDS011;21562;49.476;6.086;2024-03-02T13:39:40;2.80;;;0.60;;
35444;SDS011;21562;49.476;6.086;2024-03-02T13:42:10;2.65;;;0.80;;
35444;SDS011;21562;49.476;6.086;2024-03-02T13:44:39;1.20;;;0.70;;
35444;SDS011;21562;49.476;6.086;2024-03-02T13:47:05;1.85;;;0.98;;
35444;SDS011;21562;49.476;6.086;2024-03-02T13:49:32;1.75;;;0.60;;
35444;SDS011;21562;49.476;6.086;2024-03-02T13:52:08;2.63;;;0.80;;
35444;SDS011;21562;49.476;6.086;2024-03-02T13:54:42;1.27;;;0.57;;
35444;SDS011;21562;49.476;6.086;2024-03-02T13:57:09;1.52;;;0.63;;
35444;SDS011;21562;49.476;6.086;2024-03-02T13:59:36;2.75;;;0.60;;
35444;SDS011;21562;49.476;6.086;2024-03-02T14:02:02;2.95;;;0.70;;
35444;SDS011;21562;49.476;6.086;2024-03-02T14:04:30;2.38;;;0.90;;
35444;SDS011;21562;49.476;6.086;2024-03-02T14:06:56;3.58;;;0.55;;
35444;SDS011;21562;49.476;6.086;2024-03-02T14:09:22;2.33;;;0.65;;
35444;SDS011;21562;49.476;6.086;2024-03-02T14:11:49;1.33;;;0.70;;
35444;SDS011;21562;49.476;6.086;2024-03-02T14:14:16;1.77;;;0.47;;
35444;SDS011;21562;49.476;6.086;2024-03-02T14:16:42;1.50;;;0.73;;
35444;SDS011;21562;49.476;6.086;2024-03-02T14:19:08;2.28;;;0.70;;
35444;SDS011;21562;49.476;6.086;2024-03-02T14:21:34;3.85;;;0.60;;
35444;SDS011;21562;49.476;6.086;2024-03-02T14:24:01;2.33;;;0.60;;
35444;SDS011;21562;49.476;6.086;2024-03-02T14:26:27;3.42;;;0.68;;
35444;SDS011;21562;49.476;6.086;2024-03-02T14:28:53;1.42;;;0.40;;
35444;SDS011;21562;49.476;6.086;2024-03-02T14:31:19;0.90;;;0.50;;
35444;SDS011;21562;49.476;6.086;2024-03-02T14:33:46;1.75;;;0.50;;
35444;SDS011;21562;49.476;6.086;2024-03-02T14:36:11;2.47;;;0.77;;
35444;SDS011;21562;49.476;6.086;2024-03-02T14:38:38;2.00;;;0.82;;
35444;SDS011;21562;49.476;6.086;2024-03-02T14:41:04;2.45;;;1.35;;
35444;SDS011;21562;49.476;6.086;2024-03-02T14:43:30;0.80;;;0.60;;
35444;SDS011;21562;49.476;6.086;2024-03-02T14:45:56;1.52;;;0.63;;
35444;SDS011;21562;49.476;6.086;2024-03-02T14:48:24;2.28;;;0.82;;
35444;SDS011;21562;49.476;6.086;2024-03-02T14:50:50;2.45;;;0.90;;
35444;SDS011;21562;49.476;6.086;2024-03-02T14:53:16;2.17;;;0.77;;
35444;SDS011;21562;49.476;6.086;2024-03-02T14:55:43;1.40;;;0.60;;
35444;SDS011;21562;49.476;6.086;2024-03-02T14:58:08;1.15;;;0.68;;
35444;SDS011;21562;49.476;6.086;2024-03-02T15:00:34;3.03;;;0.77;;
35444;SDS011;21562;49.476;6.086;2024-03-02T15:03:00;2.08;;;1.10;;
35444;SDS011;21562;49.476;6.086;2024-03-02T15:05:26;2.83;;;1.05;;